Time;durP1;ratioP1;P1;durP2;ratioP2;P2;SDS_P1;SDS_P2;PMS_P1;PMS_P2;Temp;Humidity;BMP_temperature;BMP_pressure;BME280_temperature;BME280_humidity;BME280_pressure;Samples;Min_cycle;Max_cycle;Signal;HPM_P1;HPM_P2
2022/12/27 00:01:59;;;;;;;;;26.20;26.20;;;;;19.28;40.05;99882.38;5095648;27;9621;-80
2022/12/27 00:04:28;;;;;;;;;37.50;32.75;;;;;19.24;40.35;99886.03;5112751;27;8855;-80
2022/12/27 00:06:57;;;;;;;;;31.80;28.00;;;;;19.27;40.15;99880.63;5095980;27;8853;-81
2022/12/27 00:09:26;;;;;;;;;32.20;30.40;;;;;19.28;40.23;99879.72;5106525;28;8858;-78
2022/12/27 00:11:54;;;;;;;;;34.00;31.20;;;;;19.21;40.02;99877.31;5107354;28;8852;-73
2022/12/27 00:14:27;;;;;;;;;33.00;31.60;;;;;19.25;40.06;99874.50;5107123;28;8886;-73
2022/12/27 00:16:57;;;;;;;;;28.20;27.20;;;;;19.16;40.13;99874.78;5107189;28;8882;-75
2022/12/27 00:19:26;;;;;;;;;32.80;31.00;;;;;19.16;40.11;99871.28;5106823;28;8879;-80
2022/12/27 00:21:55;;;;;;;;;36.20;29.60;;;;;19.11;40.19;99867.91;5069670;28;8835;-81
2022/12/27 00:24:23;;;;;;;;;31.20;30.40;;;;;19.15;40.26;99870.44;5056872;28;8844;-79
2022/12/27 00:26:52;;;;;;;;;31.00;29.80;;;;;19.14;40.02;99870.47;5090065;28;8839;-79
2022/12/27 00:29:21;;;;;;;;;27.00;25.80;;;;;19.06;40.23;99868.94;5073208;28;8851;-80
2022/12/27 00:31:51;;;;;;;;;30.00;27.00;;;;;19.14;40.01;99866.06;5086595;28;8848;-79
2022/12/27 00:34:21;;;;;;;;;27.80;25.40;;;;;19.20;40.02;99875.56;5090379;28;8840;-80
2022/12/27 00:36:50;;;;;;;;;34.20;28.40;;;;;19.16;39.87;99879.22;5073804;28;8878;-80
2022/12/27 00:39:19;;;;;;;;;32.60;29.60;;;;;19.20;39.85;99878.22;5072394;28;9593;-81
2022/12/27 00:41:47;;;;;;;;;23.20;20.00;;;;;18.96;40.00;99882.47;5131353;27;8867;-80
2022/12/27 00:44:16;;;;;;;;;26.00;20.60;;;;;18.90;40.22;99875.56;5123329;27;8884;-78
2022/12/27 00:46:45;;;;;;;;;26.60;21.00;;;;;19.04;40.15;99880.47;5131059;27;8847;-77
2022/12/27 00:49:13;;;;;;;;;26.40;23.20;;;;;19.02;40.09;99879.66;5086516;28;8934;-78
2022/12/27 00:51:44;;;;;;;;;22.00;21.80;;;;;19.03;39.97;99881.38;5096515;28;9041;-81
2022/12/27 00:54:12;;;;;;;;;26.80;23.00;;;;;19.00;40.09;99882.34;5029031;28;8869;-80
2022/12/27 00:56:41;;;;;;;;;23.00;22.80;;;;;19.12;39.82;99886.38;5045117;28;8843;-80
2022/12/27 00:59:11;;;;;;;;;24.60;23.40;;;;;19.17;39.95;99883.59;5047105;28;8852;-79
2022/12/27 01:01:41;;;;;;;;;28.40;26.80;;;;;19.19;39.72;99884.44;5013044;28;8882;-79
2022/12/27 01:04:12;;;;;;;;;24.40;24.00;;;;;19.21;39.63;99885.25;5029361;28;8868;-81
2022/12/27 01:06:41;;;;;;;;;25.60;25.40;;;;;19.19;39.62;99882.66;5029848;28;8854;-79
2022/12/27 01:09:11;;;;;;;;;27.60;23.40;;;;;19.20;39.55;99887.00;5012475;28;9002;-80
2022/12/27 01:11:40;;;;;;;;;23.00;22.20;;;;;19.26;39.45;99891.25;5028310;28;9041;-81
2022/12/27 01:14:13;;;;;;;;;24.80;22.40;;;;;19.19;39.30;99884.44;5028766;28;8927;-79
2022/12/27 01:16:42;;;;;;;;;22.60;21.40;;;;;19.17;39.42;99884.47;5025509;28;8988;-80
2022/12/27 01:19:11;;;;;;;;;24.80;22.60;;;;;19.18;39.48;99878.25;5027814;28;8960;-81
2022/12/27 01:21:40;;;;;;;;;20.00;19.20;;;;;19.18;39.33;99872.13;5111685;27;8847;-79
2022/12/27 01:24:09;;;;;;;;;23.00;21.00;;;;;19.20;39.47;99879.06;5092605;27;8866;-79
2022/12/27 01:26:40;;;;;;;;;21.60;20.40;;;;;19.12;39.25;99870.53;5124154;27;8834;-80
2022/12/27 01:29:11;;;;;;;;;20.00;19.80;;;;;19.16;39.18;99871.28;5081212;27;8973;-80
2022/12/27 01:31:40;;;;;;;;;20.40;17.20;;;;;19.21;39.03;99866.75;5126688;27;8849;-78
2022/12/27 01:34:09;;;;;;;;;21.40;19.60;;;;;19.20;39.17;99867.63;5092380;27;8938;-78
2022/12/27 01:36:38;;;;;;;;;18.80;18.80;;;;;18.95;39.28;99865.75;5109331;27;8841;-80
2022/12/27 01:39:07;;;;;;;;;18.20;18.20;;;;;18.91;39.57;99864.09;5059424;27;9697;-79
2022/12/27 01:44:50;;;;;;;;;16.20;15.40;;;;;19.16;39.30;99861.56;5109970;27;8861;-79
2022/12/27 01:47:39;;;;;;;;;19.60;17.00;;;;;19.07;39.16;99862.75;5110370;27;8873;-79
2022/12/27 01:50:14;;;;;;;;;17.80;16.00;;;;;19.05;39.17;99869.84;5105454;27;8978;-78
2022/12/27 01:52:49;;;;;;;;;21.80;18.60;;;;;18.95;39.49;99864.88;5088343;27;8870;-80
2022/12/27 01:55:23;;;;;;;;;17.60;16.80;;;;;19.02;38.95;99864.66;5106002;27;8836;-79
2022/12/27 01:58:06;;;;;;;;;13.20;13.20;;;;;18.94;38.92;99861.38;5105475;28;8847;-81
2022/12/27 02:00:35;;;;;;;;;16.60;16.60;;;;;18.82;39.48;99867.00;5089002;27;8860;-79
2022/12/27 02:03:06;;;;;;;;;18.60;17.00;;;;;18.97;39.36;99860.41;5103061;27;8874;-78
2022/12/27 02:05:40;;;;;;;;;14.40;13.40;;;;;19.02;39.18;99859.38;5091844;27;8975;-79
2022/12/27 02:08:21;;;;;;;;;18.20;17.20;;;;;19.19;39.04;99858.00;5108677;27;8947;-78
2022/12/27 02:10:51;;;;;;;;;18.00;17.40;;;;;18.81;39.27;99857.34;5091194;27;9639;-79
2022/12/27 02:13:22;;;;;;;;;16.40;16.20;;;;;18.86;39.34;99860.72;5107965;27;8851;-79
2022/12/27 02:15:51;;;;;;;;;20.40;18.40;;;;;18.83;39.27;99856.41;5091039;27;8872;-80
2022/12/27 02:18:20;;;;;;;;;14.40;14.40;;;;;18.97;39.24;99856.00;5117278;27;8852;-78
2022/12/27 02:21:25;;;;;;;;;17.00;16.20;;;;;18.94;39.17;99860.50;5088173;27;8854;-80
2022/12/27 02:24:16;;;;;;;;;18.80;16.80;;;;;18.79;39.56;99853.84;5091339;27;8871;-81
2022/12/27 02:26:55;;;;;;;;;17.80;17.80;;;;;19.01;39.38;99852.34;5086808;28;8858;-77
2022/12/27 02:29:40;;;;;;;;;12.80;12.80;;;;;19.12;39.00;99862.59;5067183;28;8859;-77
2022/12/27 02:32:11;;;;;;;;;13.40;13.00;;;;;19.13;38.82;99860.81;5067505;28;9629;-81
2022/12/27 02:34:49;;;;;;;;;19.60;15.40;;;;;19.21;38.90;99858.81;5067672;28;8866;-79
2022/12/27 02:37:23;;;;;;;;;16.60;15.40;;;;;19.22;39.03;99853.44;5053074;28;9399;-80
2022/12/27 02:39:55;;;;;;;;;15.60;15.60;;;;;19.21;38.85;99862.31;5067584;28;8855;-79
2022/12/27 02:54:18;;;;;;;;;12.40;12.40;;;;;19.21;38.81;99859.66;5044285;28;8934;-80
2022/12/27 02:57:07;;;;;;;;;13.00;12.40;;;;;19.12;38.87;99859.94;5046529;28;8859;-78
2022/12/27 03:03:22;;;;;;;;;12.80;12.80;;;;;18.94;39.35;99849.94;5048715;28;8934;-80
2022/12/27 03:06:40;;;;;;;;;13.00;13.00;;;;;19.21;39.20;99856.16;5069146;28;8849;-82
2022/12/27 03:18:18;;;;;;;;;10.40;8.40;;;;;18.72;41.00;99876.09;4908342;29;9842;-76
2022/12/27 03:26:28;;;;;;;;;7.20;7.20;;;;;18.47;42.44;99871.50;4893340;29;8878;-76
2022/12/27 03:34:44;;;;;;;;;7.80;7.20;;;;;18.78;41.50;99871.50;4951389;28;8877;-79
2022/12/27 03:40:07;;;;;;;;;9.00;9.00;;;;;18.78;41.54;99868.00;4952608;28;8914;-77
2022/12/27 03:48:53;;;;;;;;;10.20;9.80;;;;;18.05;42.48;99883.19;5007295;28;10002;-80
2022/12/27 03:51:26;;;;;;;;;7.40;7.40;;;;;17.92;42.89;99893.16;5007357;28;8917;-80
2022/12/27 03:54:01;;;;;;;;;11.60;11.00;;;;;17.79;43.05;99894.34;5005451;28;8852;-79
2022/12/27 03:56:30;;;;;;;;;12.80;12.20;;;;;17.56;43.60;99891.38;5040506;28;8818;-78
2022/12/27 03:59:01;;;;;;;;;14.40;12.80;;;;;16.70;45.84;99907.25;5080403;28;8879;-78
2022/12/27 04:01:30;;;;;;;;;18.00;16.60;;;;;16.34;47.04;99914.97;5062513;28;8864;-77
2022/12/27 04:03:58;;;;;;;;;26.60;25.60;;;;;15.64;49.98;99931.00;5080000;28;8953;-78
2022/12/27 04:06:28;;;;;;;;;32.00;30.80;;;;;15.30;51.86;99928.84;5046049;28;8905;-77
2022/12/27 04:36:43;;;;;;;;;35.20;31.60;;;;;15.20;54.62;99948.25;5146270;27;8857;-79
2022/12/27 04:39:13;;;;;;;;;38.25;34.50;;;;;15.11;55.46;99946.63;5095358;27;8887;-78
2022/12/27 04:55:38;;;;;;;;;34.75;34.00;;;;;14.74;58.25;99964.56;5089826;28;8974;-79
2022/12/27 04:58:07;;;;;;;;;43.25;36.50;;;;;14.66;58.99;99974.28;5072716;28;9241;-79
2022/12/27 05:03:24;;;;;;;;;36.75;33.50;;;;;14.90;58.98;99983.66;5089450;28;9584;-79
2022/12/27 05:05:53;;;;;;;;;39.00;36.25;;;;;14.92;58.39;99987.13;5066531;28;8865;-80
2022/12/27 05:13:59;;;;;;;;;45.75;39.25;;;;;15.21;57.48;99998.13;5063964;28;8879;-82
2022/12/27 05:16:29;;;;;;;;;36.25;31.50;;;;;15.38;57.05;99991.81;5025394;28;8902;-81
2022/12/27 05:18:58;;;;;;;;;38.75;34.25;;;;;15.53;56.14;99998.63;5004741;28;8874;-77
2022/12/27 05:21:27;;;;;;;;;36.00;33.60;;;;;15.14;57.54;99993.88;5018099;28;8862;-78
2022/12/27 05:26:44;;;;;;;;;35.40;30.20;;;;;15.09;58.12;100000.94;4992029;28;9695;-82
2022/12/27 05:29:13;;;;;;;;;35.60;33.60;;;;;15.13;57.90;100007.03;4988545;28;8830;-78
2022/12/27 05:31:41;;;;;;;;;31.40;27.20;;;;;15.06;58.21;100011.47;4989352;28;9003;-83
2022/12/27 05:34:10;;;;;;;;;27.60;25.40;;;;;15.19;57.82;99999.91;5005345;28;8835;-82
2022/12/27 05:36:38;;;;;;;;;28.40;28.40;;;;;15.15;58.01;100000.84;4989378;28;8850;-79
2022/12/27 05:39:07;;;;;;;;;21.40;19.40;;;;;14.94;59.11;100007.22;5005090;28;8901;-79
2022/12/27 05:41:36;;;;;;;;;24.80;23.80;;;;;14.64;60.33;100012.78;5005313;28;8863;-79
2022/12/27 05:44:06;;;;;;;;;27.00;25.20;;;;;14.65;60.56;100004.91;4992584;28;8895;-80
2022/12/27 05:46:35;;;;;;;;;31.80;25.60;;;;;14.59;61.30;100007.56;4977284;28;8885;-80
2022/12/27 05:49:04;;;;;;;;;25.60;24.00;;;;;14.41;61.65;100001.59;5009949;28;8931;-78
2022/12/27 05:51:32;;;;;;;;;26.00;23.80;;;;;14.57;61.21;100007.59;5008806;28;8877;-77
2022/12/27 05:54:01;;;;;;;;;19.40;18.20;;;;;14.30;62.33;100013.06;5038694;27;8889;-79
2022/12/27 05:56:30;;;;;;;;;22.00;21.60;;;;;14.27;62.24;100027.06;5111639;27;8892;-79
2022/12/27 05:59:00;;;;;;;;;21.20;19.80;;;;;14.19;62.53;100021.00;5094529;27;8880;-79
2022/12/27 06:01:30;;;;;;;;;21.60;19.40;;;;;14.22;62.60;100018.38;5093686;27;8885;-79
2022/12/27 06:03:59;;;;;;;;;26.00;19.60;;;;;14.07;63.86;100047.34;5113585;27;8984;-79
2022/12/27 06:06:28;;;;;;;;;19.00;19.00;;;;;13.40;70.45;100070.38;5112920;27;8960;-79
2022/12/27 06:08:57;;;;;;;;;27.80;23.40;;;;;13.24;72.42;100043.34;5117782;27;8835;-81
2022/12/27 06:11:25;;;;;;;;;27.60;24.80;;;;;13.06;73.01;100046.88;5115865;27;8878;-80
2022/12/27 06:13:54;;;;;;;;;30.60;28.80;;;;;13.30;73.43;100053.81;5075617;27;8926;-81
2022/12/27 06:16:24;;;;;;;;;28.80;27.20;;;;;13.72;72.36;100066.75;5110138;27;8887;-81
2022/12/27 06:18:54;;;;;;;;;38.75;31.50;;;;;13.95;71.32;100078.00;5094332;27;8860;-83
2022/12/27 06:21:23;;;;;;;;;43.75;37.00;;;;;13.84;70.22;100090.28;5101788;27;9030;-83
2022/12/27 06:23:51;;;;;;;;;22.20;21.40;;;;;13.79;69.95;100079.81;5131761;27;8843;-82
2022/12/27 06:26:23;;;;;;;;;29.20;28.60;;;;;13.81;71.10;100066.72;5131411;27;8892;-84
2022/12/27 06:28:52;;;;;;;;;28.40;27.40;;;;;14.15;69.31;100063.88;5131240;27;8859;-84
2022/12/27 06:31:22;;;;;;;;;22.00;22.00;;;;;14.21;69.54;100064.72;5119764;27;8997;-84
2022/12/27 06:33:52;;;;;;;;;30.20;27.80;;;;;14.52;68.88;100082.00;5052524;28;8859;-85
2022/12/27 06:36:25;;;;;;;;;35.80;32.60;;;;;14.73;68.94;100080.97;5044384;28;8875;-85
2022/12/27 06:38:54;;;;;;;;;38.25;31.75;;;;;14.92;68.69;100093.03;5051416;28;8832;-83
2022/12/27 06:41:23;;;;;;;;;33.20;29.20;;;;;15.11;68.42;100101.59;5065740;28;8848;-76
2022/12/27 06:43:55;;;;;;;;;25.60;23.40;;;;;14.53;67.59;100108.19;5065070;28;8852;-77
2022/12/27 06:46:24;;;;;;;;;23.60;22.20;;;;;14.41;67.96;100122.28;5053984;28;8844;-77
2022/12/27 06:48:53;;;;;;;;;29.40;24.80;;;;;13.78;70.56;100129.63;5038850;28;8871;-87
2022/12/27 06:51:24;;;;;;;;;23.00;20.80;;;;;13.70;70.96;100120.94;5042098;28;8863;-83
2022/12/27 06:53:53;;;;;;;;;26.60;23.00;;;;;14.23;70.35;100125.03;5029133;28;9629;-83
2022/12/27 06:56:23;;;;;;;;;26.00;23.20;;;;;14.29;69.82;100129.34;5049409;28;8948;-77
2022/12/27 06:58:52;;;;;;;;;23.40;17.20;;;;;14.16;69.20;100142.56;5065653;28;8894;-81
2022/12/27 07:01:24;;;;;;;;;16.40;15.40;;;;;14.06;69.90;100142.63;5068380;28;8996;-82
2022/12/27 07:03:55;;;;;;;;;21.20;20.20;;;;;14.19;69.08;100146.91;5068675;28;8919;-81
2022/12/27 07:06:27;;;;;;;;;28.60;24.00;;;;;14.02;69.57;100145.22;5067549;28;9581;-80
2022/12/27 07:08:57;;;;;;;;;30.60;27.80;;;;;13.57;70.72;100155.06;5087985;28;8829;-80
2022/12/27 07:11:26;;;;;;;;;26.60;23.40;;;;;13.64;71.27;100162.00;5049233;28;8962;-81
2022/12/27 07:13:56;;;;;;;;;23.40;21.40;;;;;13.86;70.45;100161.94;5048454;28;8852;-80
2022/12/27 07:16:26;;;;;;;;;22.80;20.40;;;;;14.01;70.58;100164.50;5049564;28;8887;-81
2022/12/27 07:18:57;;;;;;;;;24.00;22.80;;;;;13.84;70.42;100167.19;5065418;28;8848;-78
2022/12/27 07:21:29;;;;;;;;;28.40;24.60;;;;;13.77;70.35;100168.06;5031969;28;8844;-80
2022/12/27 07:23:58;;;;;;;;;23.60;20.60;;;;;14.15;69.50;100176.66;5048337;28;8925;-79
2022/12/27 07:26:28;;;;;;;;;27.20;24.40;;;;;14.24;69.05;100179.25;5048092;28;8856;-79
2022/12/27 07:29:00;;;;;;;;;21.00;21.00;;;;;14.02;69.18;100183.72;5047926;28;9621;-81
2022/12/27 07:31:30;;;;;;;;;29.60;26.60;;;;;14.08;69.61;100185.44;5016633;28;8860;-82
2022/12/27 07:34:01;;;;;;;;;27.00;22.20;;;;;13.97;69.60;100194.22;5088710;28;8908;-81
2022/12/27 07:36:34;;;;;;;;;26.40;25.80;;;;;13.99;69.33;100195.09;5070878;28;8832;-79
2022/12/27 07:39:04;;;;;;;;;24.20;22.20;;;;;13.91;69.32;100204.72;5071483;28;9650;-79
2022/12/27 07:41:33;;;;;;;;;36.50;35.00;;;;;14.12;69.74;100206.41;5073018;27;9589;-80
2022/12/27 07:44:02;;;;;;;;;23.20;21.00;;;;;13.95;69.03;100211.72;5133968;27;8869;-80
2022/12/27 07:46:31;;;;;;;;;28.80;27.40;;;;;13.60;70.33;100217.91;5093083;27;8853;-81
2022/12/27 07:49:00;;;;;;;;;27.40;26.60;;;;;13.63;70.45;100211.81;5109571;27;8858;-80
2022/12/27 07:51:29;;;;;;;;;27.60;27.60;;;;;14.22;69.52;100209.88;5140826;27;8896;-78
2022/12/27 07:53:59;;;;;;;;;30.20;28.40;;;;;14.37;68.56;100209.78;5098903;27;8960;-78
2022/12/27 07:56:29;;;;;;;;;26.40;26.40;;;;;14.61;67.55;100202.66;5140238;27;8843;-79
2022/12/27 07:59:00;;;;;;;;;31.20;27.60;;;;;15.07;67.47;100204.09;5127376;27;8885;-79
2022/12/27 08:02:02;;;;;;;;;30.00;29.60;;;;;15.39;66.84;100202.03;5141209;27;8933;-78
2022/12/27 08:04:20;;;;;;;;;30.60;24.80;;;;;15.68;66.29;100185.09;5138854;27;8872;-79
2022/12/27 08:06:49;;;;;;;;;25.20;24.60;;;;;15.83;65.64;100189.34;5094796;27;8865;-78
2022/12/27 08:09:25;;;;;;;;;24.60;24.60;;;;;16.05;65.75;100187.31;5131082;27;8985;-81
2022/12/27 08:11:54;;;;;;;;;36.40;33.40;;;;;16.01;64.50;100190.91;5112238;27;8857;-78
2022/12/27 08:14:22;;;;;;;;;28.20;25.80;;;;;16.13;64.03;100200.38;5112682;27;8841;-79
2022/12/27 08:16:51;;;;;;;;;34.00;30.80;;;;;16.29;64.43;100198.41;5112760;27;8933;-77
2022/12/27 08:19:21;;;;;;;;;30.40;26.80;;;;;16.36;64.10;100206.19;5117668;27;8925;-79
2022/12/27 08:21:49;;;;;;;;;30.80;30.00;;;;;16.44;63.28;100216.63;5149826;27;8985;-78
2022/12/27 08:24:19;;;;;;;;;39.50;35.50;;;;;16.26;63.09;100224.78;5115835;27;8863;-79
2022/12/27 08:26:48;;;;;;;;;36.60;33.40;;;;;16.43;63.85;100221.94;5066837;27;8882;-79
2022/12/27 08:29:16;;;;;;;;;38.80;35.80;;;;;16.59;64.10;100231.34;5131635;27;8837;-80
2022/12/27 08:31:45;;;;;;;;;44.25;38.75;;;;;16.77;63.72;100235.47;5088136;28;8957;-80
2022/12/27 08:34:14;;;;;;;;;49.25;41.50;;;;;16.89;63.68;100232.69;5034006;28;8974;-78
2022/12/27 08:36:42;;;;;;;;;53.25;42.50;;;;;17.04;63.17;100236.84;5070382;28;8832;-81
2022/12/27 08:39:29;;;;;;;;;51.25;42.50;;;;;16.93;61.05;100242.28;5088100;28;8974;-77
2022/12/27 08:41:58;;;;;;;;;55.75;41.50;;;;;16.80;61.47;100256.50;5038181;28;8842;-79
2022/12/27 08:44:27;;;;;;;;;55.00;42.50;;;;;16.93;62.48;100254.59;5054197;28;8838;-78
2022/12/27 08:46:55;;;;;;;;;44.75;37.25;;;;;17.05;62.83;100243.88;5087220;28;8966;-79
2022/12/27 08:49:24;;;;;;;;;50.25;41.25;;;;;17.07;62.29;100246.44;5069642;28;9607;-79
2022/12/27 08:51:52;;;;;;;;;51.25;40.50;;;;;17.08;62.72;100250.84;5078762;28;8869;-79
2022/12/27 08:54:21;;;;;;;;;52.00;41.50;;;;;17.16;62.85;100262.13;5087682;28;8958;-79
2022/12/27 08:56:51;;;;;;;;;42.50;39.00;;;;;17.28;62.77;100253.16;5070955;28;8841;-80
2022/12/27 08:59:19;;;;;;;;;50.25;41.75;;;;;17.37;62.88;100254.75;5056168;28;8865;-78
2022/12/27 09:01:48;;;;;;;;;47.50;39.50;;;;;17.35;61.54;100273.22;5028191;28;8891;-78
2022/12/27 09:04:17;;;;;;;;;51.75;41.50;;;;;17.28;61.11;100271.63;5083405;28;8849;-79
2022/12/27 09:06:45;;;;;;;;;44.50;39.25;;;;;17.20;61.23;100277.03;5070414;28;8842;-77
2022/12/27 09:09:14;;;;;;;;;52.00;44.00;;;;;16.91;60.78;100282.72;5053955;28;8829;-79
2022/12/27 09:11:43;;;;;;;;;55.50;46.00;;;;;16.71;61.42;100288.22;5067284;28;8837;-78
2022/12/27 09:14:13;;;;;;;;;48.25;40.25;;;;;16.92;62.23;100279.22;5080373;28;8875;-79
2022/12/27 09:16:41;;;;;;;;;51.00;42.25;;;;;17.00;62.47;100285.22;5053699;28;8892;-79
2022/12/27 09:19:10;;;;;;;;;43.50;37.25;;;;;17.06;62.50;100274.59;5033864;28;8848;-80
2022/12/27 09:21:40;;;;;;;;;50.50;40.25;;;;;17.06;62.40;100260.53;5049419;28;8852;-81
2022/12/27 09:24:11;;;;;;;;;49.25;40.75;;;;;17.14;62.03;100246.34;5074973;28;8848;-81
2022/12/27 09:26:40;;;;;;;;;52.50;43.50;;;;;17.01;61.24;100249.19;5048381;28;8856;-80
2022/12/27 09:29:10;;;;;;;;;52.50;43.75;;;;;17.05;61.87;100240.34;5066704;28;8856;-79
2022/12/27 09:31:40;;;;;;;;;56.75;46.50;;;;;16.90;62.12;100247.59;5066196;28;8852;-81
2022/12/27 09:34:10;;;;;;;;;59.25;48.25;;;;;16.73;62.98;100254.88;5069879;28;9572;-79
2022/12/27 09:36:40;;;;;;;;;58.25;48.25;;;;;16.93;63.50;100254.59;5106386;28;8863;-82
2022/12/27 09:39:12;;;;;;;;;57.25;48.25;;;;;17.05;62.45;100233.31;5057644;28;9080;-79
2022/12/27 09:41:50;;;;;;;;;68.75;54.50;;;;;16.93;62.66;100241.41;5095051;28;8836;-80
2022/12/27 09:44:49;;;;;;;;;72.00;59.00;;;;;17.00;62.64;100239.56;5081056;28;8876;-82
2022/12/27 09:47:26;;;;;;;;;59.25;48.50;;;;;17.06;62.15;100231.56;5089025;28;8950;-78
2022/12/27 09:49:58;;;;;;;;;63.75;52.00;;;;;17.17;63.08;100229.63;5080224;28;8827;-82
2022/12/27 09:52:30;;;;;;;;;60.25;48.25;;;;;17.21;62.15;100233.06;5089954;28;8944;-83
2022/12/27 09:55:04;;;;;;;;;62.25;50.00;;;;;17.36;62.19;100235.44;5106309;28;8876;-82
2022/12/27 09:57:37;;;;;;;;;60.50;47.50;;;;;17.49;61.50;100241.38;5103856;28;8841;-84
2022/12/27 10:00:15;;;;;;;;;57.75;46.00;;;;;17.64;61.68;100238.47;5102520;28;8829;-83
2022/12/27 10:02:46;;;;;;;;;55.50;46.00;;;;;17.62;61.63;100237.63;5081731;28;8849;-82
2022/12/27 10:05:21;;;;;;;;;60.50;49.75;;;;;17.53;61.29;100238.66;5096296;28;8837;-83
2022/12/27 10:08:06;;;;;;;;;60.50;48.75;;;;;17.61;61.63;100227.97;5098139;28;8886;-83
2022/12/27 10:10:42;;;;;;;;;57.00;46.50;;;;;17.58;60.85;100228.03;5055331;28;8843;-84
2022/12/27 10:13:23;;;;;;;;;56.00;45.75;;;;;17.68;61.40;100236.63;5084943;28;8861;-84
2022/12/27 10:16:04;;;;;;;;;54.50;44.25;;;;;17.79;61.06;100225.88;5116250;27;8864;-81
2022/12/27 10:18:46;;;;;;;;;54.50;44.00;;;;;17.87;61.36;100229.28;5087325;28;8889;-83
2022/12/27 10:21:20;;;;;;;;;56.50;46.25;;;;;17.88;61.15;100217.81;5088081;28;9608;-83
2022/12/27 10:23:55;;;;;;;;;51.75;43.00;;;;;17.88;60.60;100217.81;5082845;28;8991;-82
2022/12/27 10:26:25;;;;;;;;;52.00;41.00;;;;;17.84;60.69;100218.72;5107825;28;8837;-81
2022/12/27 10:28:59;;;;;;;;;56.25;45.75;;;;;17.82;60.11;100220.53;5100671;28;8837;-84
2022/12/27 10:31:30;;;;;;;;;53.75;44.00;;;;;17.84;60.20;100230.19;5091133;28;8856;-79
2022/12/27 10:34:01;;;;;;;;;54.00;44.00;;;;;17.77;60.28;100228.56;5106997;28;8937;-83
2022/12/27 10:36:39;;;;;;;;;55.75;47.25;;;;;17.69;60.27;100233.09;5090547;28;8864;-81
2022/12/27 10:39:17;;;;;;;;;56.00;45.00;;;;;17.79;60.43;100232.03;5089081;28;8848;-82
2022/12/27 10:41:57;;;;;;;;;60.25;49.00;;;;;17.27;61.14;100230.31;5062653;28;8856;-83
2022/12/27 10:44:26;;;;;;;;;55.25;43.25;;;;;17.38;61.78;100232.78;5079760;28;8836;-83
2022/12/27 10:46:56;;;;;;;;;61.50;50.00;;;;;17.45;61.29;100244.97;5058750;28;9021;-84
2022/12/27 10:49:29;;;;;;;;;56.00;47.00;;;;;17.61;61.41;100238.50;5088726;28;8920;-86
2022/12/27 10:52:10;;;;;;;;;57.75;45.50;;;;;17.84;62.01;100230.19;5071383;28;8851;-81
2022/12/27 10:54:51;;;;;;;;;63.75;51.75;;;;;17.99;61.08;100233.44;5085900;28;8983;-80
2022/12/27 10:57:27;;;;;;;;;64.00;50.00;;;;;18.00;61.00;100232.53;5105439;28;9065;-76
2022/12/27 11:00:16;;;;;;;;;64.75;52.00;;;;;18.16;61.38;100230.44;5105713;28;8843;-75
2022/12/27 11:02:52;;;;;;;;;67.75;53.50;;;;;18.17;61.03;100232.22;5105699;28;8852;-77
2022/12/27 11:05:26;;;;;;;;;69.50;55.75;;;;;18.20;61.17;100232.13;5088646;28;8836;-75
2022/12/27 11:07:55;;;;;;;;;63.00;51.75;;;;;18.23;60.08;100226.78;5088860;28;8840;-81
2022/12/27 11:10:26;;;;;;;;;55.25;45.50;;;;;18.28;60.24;100231.06;5069493;28;8951;-85
2022/12/27 11:12:57;;;;;;;;;54.00;44.75;;;;;18.33;60.01;100227.47;5087996;28;8949;-83
2022/12/27 11:15:28;;;;;;;;;47.50;41.75;;;;;18.30;60.02;100223.97;5070152;28;8848;-82
2022/12/27 11:18:00;;;;;;;;;49.75;42.75;;;;;18.38;59.94;100215.91;5088233;28;8933;-82
2022/12/27 11:20:33;;;;;;;;;50.00;41.00;;;;;18.48;59.81;100214.78;5084255;28;8861;-81
2022/12/27 11:23:05;;;;;;;;;45.25;38.25;;;;;18.35;59.32;100223.00;5090461;28;8857;-79
2022/12/27 11:25:35;;;;;;;;;47.00;39.50;;;;;18.30;58.65;100233.69;5089172;28;8883;-81
2022/12/27 11:28:07;;;;;;;;;46.50;36.50;;;;;18.40;58.97;100231.72;5047134;27;8865;-81
2022/12/27 11:30:39;;;;;;;;;37.75;35.25;;;;;18.31;58.99;100230.13;5107497;27;8853;-82
2022/12/27 11:33:19;;;;;;;;;42.00;36.25;;;;;18.14;58.32;100227.84;5126229;27;8940;-81
2022/12/27 11:35:58;;;;;;;;;42.50;36.00;;;;;18.15;58.78;100220.78;5127631;27;9009;-80
2022/12/27 11:38:30;;;;;;;;;39.75;35.75;;;;;18.20;59.21;100226.84;5065844;28;8877;-78
2022/12/27 11:41:04;;;;;;;;;39.50;34.75;;;;;18.26;58.01;100237.28;5046929;28;8876;-80
2022/12/27 11:43:38;;;;;;;;;33.25;32.25;;;;;18.20;58.21;100230.34;5062582;28;8864;-81
2022/12/27 11:46:18;;;;;;;;;40.75;35.50;;;;;18.26;57.96;100232.00;5054598;28;8864;-80
2022/12/27 11:48:55;;;;;;;;;43.25;37.00;;;;;18.26;58.23;100232.88;5072194;28;8852;-81
2022/12/27 11:51:49;;;;;;;;;48.25;40.25;;;;;18.36;58.01;100238.81;5052766;28;8856;-83
2022/12/27 11:54:29;;;;;;;;;50.00;40.50;;;;;17.43;59.24;100246.75;5053503;28;8856;-80
2022/12/27 11:57:15;;;;;;;;;44.25;38.25;;;;;17.55;60.07;100259.72;5071955;28;8945;-80
2022/12/27 11:59:56;;;;;;;;;49.00;41.75;;;;;17.75;59.81;100256.75;5073323;28;8876;-81
2022/12/27 12:02:33;;;;;;;;;48.25;40.25;;;;;17.10;60.29;100265.72;5057220;28;8959;-79
2022/12/27 12:05:40;;;;;;;;;34.50;31.50;;;;;16.22;61.53;100276.59;5068462;28;8972;-81
2022/12/27 12:08:40;;;;;;;;;38.00;32.00;;;;;15.24;66.00;100286.28;4956302;28;8914;-81
2022/12/27 12:11:21;;;;;;;;;41.80;36.40;;;;;14.76;68.56;100289.22;5032085;28;8846;-81
2022/12/27 12:14:13;;;;;;;;;44.50;36.75;;;;;14.70;68.73;100302.38;5030831;28;9654;-83
2022/12/27 12:17:00;;;;;;;;;38.25;35.75;;;;;14.02;72.17;100328.81;5031960;28;8858;-82
2022/12/27 12:19:48;;;;;;;;;40.25;36.50;;;;;13.81;73.19;100340.19;5035338;28;8886;-83
2022/12/27 12:22:34;;;;;;;;;46.75;38.00;;;;;13.78;75.01;100344.56;5031507;28;8846;-82
2022/12/27 12:25:35;;;;;;;;;43.50;38.00;;;;;13.58;76.05;100334.97;5031601;28;8972;-82
2022/12/27 12:28:32;;;;;;;;;45.75;40.25;;;;;13.27;77.68;100342.81;5015190;28;8882;-83
2022/12/27 12:31:39;;;;;;;;;54.50;42.00;;;;;13.41;77.52;100323.63;4986289;28;8855;-83
2022/12/27 12:34:36;;;;;;;;;34.50;32.75;;;;;13.69;77.11;100308.78;4974692;28;8877;-80
2022/12/27 12:37:17;;;;;;;;;52.25;41.50;;;;;13.38;77.24;100335.00;4913469;29;8923;-81
2022/12/27 12:40:03;;;;;;;;;46.25;37.75;;;;;13.19;77.69;100348.88;4895671;29;9783;-84
2022/12/27 12:42:43;;;;;;;;;36.00;31.00;;;;;13.07;78.88;100339.28;4919056;29;8926;-81
2022/12/27 12:45:38;;;;;;;;;30.60;28.00;;;;;12.63;80.83;100338.28;4958812;28;8872;-81
2022/12/27 12:48:30;;;;;;;;;38.50;35.00;;;;;13.03;78.60;100334.91;4949936;28;8894;-81
2022/12/27 12:51:20;;;;;;;;;40.20;31.60;;;;;13.33;76.90;100325.38;4918859;28;8881;-81
2022/12/27 12:54:09;;;;;;;;;32.60;30.60;;;;;13.85;77.13;100335.84;4949018;28;9015;-82
2022/12/27 12:56:59;;;;;;;;;35.40;32.20;;;;;13.94;75.26;100333.19;4933223;28;8877;-80
2022/12/27 12:59:51;;;;;;;;;36.75;31.50;;;;;13.93;75.75;100330.56;4932724;28;8862;-79
2022/12/27 13:02:49;;;;;;;;;40.75;36.75;;;;;13.83;73.54;100334.97;4935697;28;8867;-81
2022/12/27 13:05:29;;;;;;;;;35.80;34.80;;;;;13.54;73.45;100338.47;4936182;28;8887;-80
2022/12/27 13:08:11;;;;;;;;;25.40;25.40;;;;;12.97;71.38;100337.50;4920501;28;8864;-81
2022/12/27 13:11:01;;;;;;;;;15.80;14.20;;;;;12.60;73.08;100340.00;4932666;28;8940;-82
2022/12/27 13:13:45;;;;;;;;;18.60;14.00;;;;;12.65;74.85;100341.75;4922763;28;8873;-81
2022/12/27 13:16:25;;;;;;;;;22.80;20.20;;;;;12.46;75.68;100350.41;5007246;28;8845;-83
2022/12/27 13:19:06;;;;;;;;;23.60;23.40;;;;;12.83;76.13;100351.41;5010441;28;8879;-82
2022/12/27 13:21:53;;;;;;;;;33.60;31.40;;;;;13.19;76.27;100344.50;4996809;28;8875;-81
2022/12/27 13:24:36;;;;;;;;;35.50;33.25;;;;;13.59;75.75;100355.09;5018637;28;8872;-81
2022/12/27 13:27:11;;;;;;;;;26.80;24.60;;;;;13.11;77.40;100361.09;5033678;28;8952;-82
2022/12/27 13:29:51;;;;;;;;;33.50;31.00;;;;;12.91;78.56;100358.41;5086915;28;8850;-82
2022/12/27 13:32:31;;;;;;;;;33.00;31.75;;;;;12.79;79.00;100370.59;5054684;28;8873;-81